createdAt,value
2017-08-20T00:00:02.356Z,70.87
2017-08-20T00:01:11.308Z,70.29
2017-08-20T00:02:20.354Z,70.55
2017-08-20T00:03:29.310Z,70.87
2017-08-20T00:04:38.420Z,70.93
2017-08-20T00:05:47.439Z,71.31
2017-08-20T00:06:56.573Z,71.25
2017-08-20T00:08:05.587Z,71.45
2017-08-20T00:09:14.739Z,71.35
2017-08-20T00:10:24.350Z,71.7
2017-08-20T00:11:33.418Z,71.25
2017-08-20T00:12:42.414Z,71.25
2017-08-20T00:13:51.402Z,71.41
2017-08-20T00:15:00.390Z,71.7
2017-08-20T00:16:09.414Z,71.41
2017-08-20T00:17:18.472Z,71.31
2017-08-20T00:18:27.541Z,71.31
2017-08-20T00:19:36.608Z,71.61
2017-08-20T00:20:45.580Z,71.61
2017-08-20T00:21:54.700Z,71.98
2017-08-20T00:23:03.655Z,72.18
2017-08-20T00:24:12.607Z,72.37
2017-08-20T00:25:21.556Z,72.37
2017-08-20T00:26:30.643Z,71.98
2017-08-20T00:27:39.606Z,72.08
2017-08-20T00:28:48.958Z,71.7
2017-08-20T00:29:57.967Z,71.98
2017-08-20T00:31:06.985Z,72.18
2017-08-20T00:32:15.933Z,72.08
2017-08-20T00:33:24.950Z,72.37
2017-08-20T00:34:33.974Z,72.85
2017-08-20T00:35:43.278Z,72.18
2017-08-20T00:36:52.427Z,72.37
2017-08-20T00:38:01.381Z,72.47
2017-08-20T00:39:10.639Z,72.66
2017-08-20T00:40:19.594Z,72.75
2017-08-20T00:41:28.642Z,72.56
2017-08-20T00:42:37.596Z,73.14
2017-08-20T00:43:46.649Z,72.75
2017-08-20T00:44:55.681Z,73.04
2017-08-20T00:46:04.771Z,72.56
2017-08-20T00:47:13.752Z,72.28
2017-08-20T00:48:22.761Z,72.75
2017-08-20T00:49:31.755Z,72.18
2017-08-20T00:50:40.820Z,72.18
2017-08-20T00:51:49.819Z,72.28
2017-08-20T00:52:58.865Z,72.95
2017-08-20T00:54:07.934Z,72.95
2017-08-20T00:55:16.893Z,72.47
2017-08-20T00:56:26.278Z,73.04
2017-08-20T00:57:35.301Z,72.75
2017-08-20T00:58:44.316Z,73.24
2017-08-20T00:59:53.295Z,73.04
2017-08-20T01:01:02.392Z,72.95
2017-08-20T01:02:11.344Z,73.33
2017-08-20T01:03:20.771Z,73.14
2017-08-20T01:04:29.758Z,73.04
2017-08-20T01:05:38.788Z,73.81
2017-08-20T01:06:47.782Z,73.62
2017-08-20T01:07:56.899Z,73.81
2017-08-20T01:09:05.899Z,73.24
2017-08-20T01:10:14.917Z,73.3
2017-08-20T01:11:23.902Z,73.39
2017-08-20T01:12:32.850Z,73.68
2017-08-20T01:13:41.999Z,73.39
2017-08-20T01:14:51.019Z,73.43
2017-08-20T01:16:00.189Z,73.77
2017-08-20T01:17:09.137Z,73.77
2017-08-20T01:18:18.240Z,74.1
2017-08-20T01:19:27.187Z,74.01
2017-08-20T01:20:36.289Z,74.06
2017-08-20T01:21:45.371Z,74.06
2017-08-20T01:22:54.385Z,74.35
2017-08-20T01:24:03.381Z,74.44
2017-08-20T01:25:12.420Z,74.35
2017-08-20T01:26:21.413Z,74.06
2017-08-20T01:27:30.558Z,74.26
2017-08-20T01:28:39.585Z,74.44
2017-08-20T01:29:48.590Z,74.44
2017-08-20T01:30:57.706Z,74.44
2017-08-20T01:32:06.659Z,74.35
2017-08-20T01:33:15.647Z,74.44
2017-08-20T01:34:24.603Z,74.26
2017-08-20T01:35:33.923Z,74.73
2017-08-20T01:36:42.875Z,75.12
2017-08-20T01:37:51.994Z,74.93
2017-08-20T01:39:01.039Z,74.83
2017-08-20T01:40:10.141Z,75.02
2017-08-20T01:41:19.125Z,75.12
2017-08-20T01:42:28.114Z,75.21
2017-08-20T01:43:37.065Z,74.93
2017-08-20T01:44:46.191Z,75.21
2017-08-20T01:45:55.374Z,75.02
2017-08-20T01:47:04.324Z,74.93
2017-08-20T01:48:13.505Z,74.93
2017-08-20T01:49:22.774Z,75.02
2017-08-20T01:50:31.836Z,75.02
2017-08-20T01:51:40.828Z,74.93
2017-08-20T01:52:49.881Z,74.83
2017-08-20T01:53:58.834Z,75.02
2017-08-20T01:55:07.859Z,74.93
2017-08-20T01:56:16.853Z,75.02
2017-08-20T01:57:25.869Z,75.02
2017-08-20T01:58:34.900Z,75.02
2017-08-20T01:59:44.015Z,75.02
2017-08-20T02:00:53.109Z,75.31
2017-08-20T02:02:02.154Z,75.12
2017-08-20T02:03:11.249Z,75.4
2017-08-20T02:04:20.205Z,75.4
2017-08-20T02:05:29.162Z,75.6
2017-08-20T02:06:38.115Z,75.79
2017-08-20T02:07:47.067Z,76.07
2017-08-20T02:08:56.018Z,75.79
2017-08-20T02:10:04.967Z,75.7
2017-08-20T02:11:14.244Z,76.37
2017-08-20T02:12:23.526Z,76.37
2017-08-20T02:13:32.474Z,76.37
2017-08-20T02:14:41.422Z,76.56
2017-08-20T02:15:50.369Z,76.32
2017-08-20T02:16:59.404Z,76.9
2017-08-20T02:18:08.356Z,76.84
2017-08-20T02:19:17.307Z,76.94
2017-08-20T02:20:26.264Z,76.27
2017-08-20T02:21:35.212Z,76.52
2017-08-20T02:22:44.160Z,76.23
2017-08-20T02:23:53.109Z,76.52
2017-08-20T02:25:02.065Z,76.62
2017-08-20T02:26:11.018Z,76.32
2017-08-20T02:27:19.973Z,76.14
2017-08-20T02:28:28.932Z,76.14
2017-08-20T02:29:37.881Z,76.62
2017-08-20T02:30:47.162Z,76.32
2017-08-20T02:31:56.427Z,76.9
2017-08-20T02:33:05.376Z,76.9
2017-08-20T02:34:14.330Z,76.81
2017-08-20T02:35:23.281Z,76.62
2017-08-20T02:36:32.238Z,77.48
2017-08-20T02:37:41.199Z,76.81
2017-08-20T02:38:50.478Z,76.9
2017-08-20T02:39:59.428Z,76.9
2017-08-20T02:41:08.387Z,77
2017-08-20T02:42:17.356Z,76.9
2017-08-20T02:43:26.305Z,77.29
2017-08-20T02:44:35.261Z,77.19
2017-08-20T02:45:44.213Z,77.19
2017-08-20T02:46:53.494Z,77.67
2017-08-20T02:48:02.451Z,77.38
2017-08-20T02:49:11.727Z,78.25
2017-08-20T02:50:20.680Z,77.67
2017-08-20T02:51:29.632Z,78.25
2017-08-20T02:52:38.579Z,78.34
2017-08-20T02:53:47.533Z,78.15
2017-08-20T02:54:56.479Z,78.63
2017-08-20T02:56:05.429Z,78.63
2017-08-20T02:57:14.376Z,78.63
2017-08-20T02:58:23.324Z,78.44
2017-08-20T02:59:32.285Z,78.44
2017-08-20T03:00:41.248Z,78.53
2017-08-20T03:01:50.206Z,78.72
2017-08-20T03:02:59.157Z,78.44
2017-08-20T03:04:08.433Z,78.63
2017-08-20T03:05:17.388Z,78.53
2017-08-20T03:06:26.339Z,78.53
2017-08-20T03:07:35.300Z,78.25
2017-08-20T03:08:44.254Z,78.82
2017-08-20T03:09:53.209Z,78.53
2017-08-20T03:11:02.161Z,78.82
2017-08-20T03:12:11.116Z,78.82
2017-08-20T03:13:20.072Z,79.21
2017-08-20T03:14:29.025Z,79.01
2017-08-20T03:15:37.971Z,78.72
2017-08-20T03:16:46.919Z,78.72
2017-08-20T03:17:55.872Z,79.11
2017-08-20T03:19:04.829Z,78.92
2017-08-20T03:20:13.779Z,78.88
2017-08-20T03:21:22.736Z,78.78
2017-08-20T03:22:31.688Z,79.11
2017-08-20T03:23:40.637Z,79.26
2017-08-20T03:24:49.588Z,79.16
2017-08-20T03:25:58.542Z,79.36
2017-08-20T03:27:07.492Z,79.39
2017-08-20T03:28:16.770Z,79.26
2017-08-20T03:29:25.722Z,79.16
2017-08-20T03:30:34.672Z,79.16
2017-08-20T03:31:43.629Z,79.26
2017-08-20T03:32:52.586Z,79.26
2017-08-20T03:34:01.532Z,79.07
2017-08-20T03:35:10.512Z,79.45
2017-08-20T03:36:19.458Z,79.74
2017-08-20T03:37:28.413Z,79.26
2017-08-20T03:38:37.360Z,79.16
2017-08-20T03:39:46.313Z,79.55
2017-08-20T03:40:55.262Z,79.64
2017-08-20T03:42:04.213Z,79.64
2017-08-20T03:43:13.164Z,79.36
2017-08-20T03:44:22.111Z,79.74
2017-08-20T03:45:31.061Z,79.64
2017-08-20T03:46:40.010Z,79.83
2017-08-20T03:47:49.286Z,80.03
2017-08-20T03:48:58.233Z,79.93
2017-08-20T03:50:07.182Z,79.74
2017-08-20T03:51:16.131Z,79.74
2017-08-20T03:52:25.088Z,79.45
2017-08-20T03:53:34.043Z,79.64
2017-08-20T03:54:42.991Z,79.64
2017-08-20T03:55:52.258Z,79.83
2017-08-20T03:57:01.204Z,80.51
2017-08-20T03:58:10.148Z,80.22
2017-08-20T03:59:19.094Z,80.32
2017-08-20T04:00:28.039Z,80.41
2017-08-20T04:01:36.988Z,80.22
2017-08-20T04:02:45.938Z,80.12
2017-08-20T04:03:54.884Z,80.12
2017-08-20T04:05:03.835Z,80.32
2017-08-20T04:06:13.107Z,80.12
2017-08-20T04:07:22.058Z,80.6
2017-08-20T04:08:31.012Z,80.03
2017-08-20T04:09:39.960Z,80.12
2017-08-20T04:10:48.910Z,80.41
2017-08-20T04:11:57.864Z,80.22
2017-08-20T04:13:06.827Z,80.22
2017-08-20T04:14:15.781Z,80.12
2017-08-20T04:15:24.730Z,79.93
2017-08-20T04:16:33.678Z,80.22
2017-08-20T04:17:42.624Z,80.89
2017-08-20T04:18:51.572Z,80.6
2017-08-20T04:20:00.521Z,80.79
2017-08-20T04:21:09.471Z,80.99
2017-08-20T04:22:18.425Z,80.7
2017-08-20T04:23:27.378Z,80.6
2017-08-20T04:24:36.324Z,80.89
2017-08-20T04:25:45.272Z,80.6
2017-08-20T04:26:54.224Z,80.7
2017-08-20T04:28:03.194Z,80.7
2017-08-20T04:29:12.467Z,80.41
2017-08-20T04:30:21.428Z,81.08
2017-08-20T04:31:30.400Z,80.99
2017-08-20T04:32:39.348Z,80.89
2017-08-20T04:33:48.298Z,80.41
2017-08-20T04:34:57.242Z,80.89
2017-08-20T04:36:06.192Z,80.51
2017-08-20T04:37:15.145Z,80.51
2017-08-20T04:38:24.094Z,80.6
2017-08-20T04:39:33.365Z,80.79
2017-08-20T04:40:42.308Z,80.51
2017-08-20T04:41:51.256Z,80.89
2017-08-20T04:43:00.198Z,80.6
2017-08-20T04:44:09.151Z,80.7
2017-08-20T04:45:18.103Z,81.37
2017-08-20T04:46:27.047Z,80.99
2017-08-20T04:47:35.995Z,80.99
2017-08-20T04:48:44.940Z,80.7
2017-08-20T04:49:53.889Z,80.99
2017-08-20T04:51:02.846Z,81.27
2017-08-20T04:52:11.809Z,81.75
2017-08-20T04:53:20.757Z,81.27
2017-08-20T04:54:29.705Z,81.56
2017-08-20T04:55:38.659Z,81.46
2017-08-20T04:56:47.616Z,81.66
2017-08-20T04:57:56.565Z,81.75
2017-08-20T04:59:05.515Z,81.66
2017-08-20T05:00:14.476Z,81.75
2017-08-20T05:01:23.444Z,81.37
2017-08-20T05:02:32.727Z,81.37
2017-08-20T05:03:41.684Z,81.75
2017-08-20T05:04:50.636Z,81.66
2017-08-20T05:05:59.583Z,81.18
2017-08-20T05:07:08.540Z,81.56
2017-08-20T05:08:17.489Z,81.85
2017-08-20T05:09:26.445Z,81.56
2017-08-20T05:10:35.401Z,81.66
2017-08-20T05:11:44.354Z,81.75
2017-08-20T05:12:53.307Z,81.66
2017-08-20T05:14:02.258Z,81.75
2017-08-20T05:15:11.202Z,81.85
2017-08-20T05:16:20.155Z,81.37
2017-08-20T05:17:29.106Z,81.75
2017-08-20T05:18:38.059Z,81.66
2017-08-20T05:19:47.016Z,81.37
2017-08-20T05:20:55.962Z,81.75
2017-08-20T05:22:04.912Z,82.14
2017-08-20T05:23:13.865Z,82.14
2017-08-20T05:24:22.817Z,82.04
2017-08-20T05:25:31.769Z,82.04
2017-08-20T05:26:41.041Z,81.85
2017-08-20T05:27:49.987Z,81.66
2017-08-20T05:28:58.935Z,81.85
2017-08-20T05:30:07.886Z,81.85
2017-08-20T05:31:16.844Z,81.85
2017-08-20T05:32:25.798Z,81.75
2017-08-20T05:33:34.741Z,82.04
2017-08-20T05:34:43.686Z,82.04
2017-08-20T05:35:52.633Z,82.04
2017-08-20T05:37:01.589Z,81.85
2017-08-20T05:38:10.539Z,81.95
2017-08-20T05:39:19.493Z,81.89
2017-08-20T05:40:28.441Z,81.95
2017-08-20T05:41:37.711Z,82.08
2017-08-20T05:42:46.665Z,81.79
2017-08-20T05:43:55.611Z,81.89
2017-08-20T05:45:04.558Z,81.7
2017-08-20T05:46:13.507Z,82.08
2017-08-20T05:47:22.466Z,82.18
2017-08-20T05:48:31.412Z,81.89
2017-08-20T05:49:40.361Z,81.98
2017-08-20T05:50:49.308Z,81.79
2017-08-20T05:51:58.264Z,81.89
2017-08-20T05:53:07.218Z,81.98
2017-08-20T05:54:16.163Z,81.7
2017-08-20T05:55:25.119Z,81.6
2017-08-20T05:56:34.093Z,81.79
2017-08-20T05:57:43.042Z,81.22
2017-08-20T05:58:51.993Z,81.31
2017-08-20T06:00:00.941Z,81.89
2017-08-20T06:01:09.892Z,81.7
2017-08-20T06:02:18.849Z,81.7
2017-08-20T06:03:27.796Z,81.22
2017-08-20T06:04:36.743Z,81.41
2017-08-20T06:05:45.716Z,81.41
2017-08-20T06:06:54.990Z,81.7
2017-08-20T06:08:03.941Z,81.51
2017-08-20T06:09:12.887Z,81.22
2017-08-20T06:10:21.836Z,81.41
2017-08-20T06:11:30.788Z,81.6
2017-08-20T06:12:39.742Z,81.45
2017-08-20T06:13:48.702Z,80.97
2017-08-20T06:14:57.680Z,80.78
2017-08-20T06:16:06.990Z,81.07
2017-08-20T06:17:15.934Z,81.07
2017-08-20T06:18:24.883Z,81.16
2017-08-20T06:19:33.833Z,80.58
2017-08-20T06:20:42.789Z,80.78
2017-08-20T06:21:51.736Z,80.3
2017-08-20T06:23:00.696Z,80.49
2017-08-20T06:24:09.647Z,79.91
2017-08-20T06:25:18.600Z,79.44
2017-08-20T06:26:27.545Z,79.14
2017-08-20T06:27:36.494Z,79.34
2017-08-20T06:28:45.762Z,79.63
2017-08-20T06:29:54.716Z,78.77
2017-08-20T06:31:03.670Z,78.77
2017-08-20T06:32:12.623Z,78.86
2017-08-20T06:33:21.589Z,79.34
2017-08-20T06:34:30.537Z,79.34
2017-08-20T06:35:39.483Z,79.24
2017-08-20T06:36:48.430Z,79.72
2017-08-20T06:37:57.376Z,79.14
2017-08-20T06:39:06.326Z,79.14
2017-08-20T06:40:15.274Z,79.53
2017-08-20T06:41:24.225Z,78.67
2017-08-20T06:42:33.192Z,78.96
2017-08-20T06:43:42.145Z,78.67
2017-08-20T06:44:51.096Z,78.42
2017-08-20T06:46:00.051Z,78.47
2017-08-20T06:47:08.998Z,78.67
2017-08-20T06:48:17.951Z,78.52
2017-08-20T06:49:26.907Z,77.56
2017-08-20T06:50:36.175Z,77.51
2017-08-20T06:51:45.121Z,77.56
2017-08-20T06:52:54.073Z,78.13
2017-08-20T06:54:03.322Z,77.56
2017-08-20T06:55:12.272Z,77.56
2017-08-20T06:56:21.443Z,77.46
2017-08-20T06:57:30.390Z,77.56
2017-08-20T06:58:39.336Z,77.46
2017-08-20T06:59:48.288Z,77.36
2017-08-20T07:00:57.240Z,77.46
2017-08-20T07:02:06.205Z,77.26
2017-08-20T07:03:15.160Z,77.26
2017-08-20T07:04:24.435Z,77.36
2017-08-20T07:05:33.385Z,77.08
2017-08-20T07:06:42.337Z,76.69
2017-08-20T07:07:51.609Z,76.82
2017-08-20T07:09:00.557Z,76.88
2017-08-20T07:10:09.507Z,76.5
2017-08-20T07:11:18.479Z,76.59
2017-08-20T07:12:27.428Z,76.4
2017-08-20T07:13:36.426Z,76.79
2017-08-20T07:14:45.386Z,76.44
2017-08-20T07:15:54.335Z,75.92
2017-08-20T07:17:03.358Z,75.92
2017-08-20T07:18:12.306Z,75.73
2017-08-20T07:19:21.261Z,76.59
2017-08-20T07:20:30.544Z,76.34
2017-08-20T07:21:39.498Z,76.25
2017-08-20T07:22:48.453Z,76.34
2017-08-20T07:23:57.406Z,76.44
2017-08-20T07:25:06.685Z,75.96
2017-08-20T07:26:15.634Z,75.77
2017-08-20T07:27:24.581Z,74.81
2017-08-20T07:28:34.521Z,74.62
2017-08-20T07:29:43.475Z,74.43
2017-08-20T07:30:52.573Z,74.43
2017-08-20T07:32:01.588Z,74.13
2017-08-20T07:33:10.612Z,74.33
2017-08-20T07:34:19.558Z,74.04
2017-08-20T07:35:28.703Z,73.75
2017-08-20T07:36:37.651Z,73.6
2017-08-20T07:37:46.675Z,73.41
2017-08-20T07:38:55.993Z,73.11
2017-08-20T07:40:04.942Z,72.41
2017-08-20T07:41:13.898Z,72.5
2017-08-20T07:42:22.849Z,72.25
2017-08-20T07:43:31.803Z,72.22
2017-08-20T07:44:40.757Z,72.5
2017-08-20T07:45:49.707Z,72.54
2017-08-20T07:46:58.662Z,72.34
2017-08-20T07:48:07.625Z,72.44
2017-08-20T07:49:16.598Z,72.25
2017-08-20T07:50:25.614Z,71.58
2017-08-20T07:51:34.626Z,71.67
2017-08-20T07:52:43.578Z,71.39
2017-08-20T07:53:52.553Z,71.19
2017-08-20T07:55:01.513Z,70.72
2017-08-20T07:56:10.565Z,70.62
2017-08-20T07:57:19.839Z,70.62
2017-08-20T07:58:28.897Z,71.29
2017-08-20T07:59:37.932Z,70.72
2017-08-20T08:00:46.882Z,70.9
2017-08-20T08:01:55.831Z,71
2017-08-20T08:03:04.781Z,70.72
2017-08-20T08:04:13.735Z,70.81
2017-08-20T08:05:23.016Z,70.27
2017-08-20T08:06:32.092Z,70.27
2017-08-20T08:07:41.085Z,70.07
2017-08-20T08:08:50.040Z,69.89
2017-08-20T08:09:58.989Z,69.98
2017-08-20T08:11:08.012Z,69.79
2017-08-20T08:12:17.017Z,69.4
2017-08-20T08:13:25.979Z,69.12
2017-08-20T08:14:34.958Z,69.31
2017-08-20T08:15:44.257Z,69.31
2017-08-20T08:16:53.232Z,69.98
2017-08-20T08:18:02.208Z,70.07
2017-08-20T08:19:11.517Z,69.79
2017-08-20T08:20:20.491Z,69.4
2017-08-20T08:21:29.470Z,69.06
2017-08-20T08:22:38.447Z,69.15
2017-08-20T08:23:47.417Z,69.15
2017-08-20T08:24:56.389Z,68.96
2017-08-20T08:26:05.356Z,68.67
2017-08-20T08:27:14.922Z,69.15
2017-08-20T08:28:23.986Z,69.15
2017-08-20T08:29:32.942Z,69.34
2017-08-20T08:30:41.962Z,69.06
2017-08-20T08:31:51.231Z,68.76
2017-08-20T08:33:00.185Z,68.57
2017-08-20T08:34:09.144Z,68.96
2017-08-20T08:35:18.100Z,68.67
2017-08-20T08:36:27.054Z,68.48
2017-08-20T08:37:36.017Z,69.15
2017-08-20T08:38:44.990Z,68.86
2017-08-20T08:39:53.967Z,68.57
2017-08-20T08:41:02.953Z,68.48
2017-08-20T08:42:11.918Z,68.38
2017-08-20T08:43:20.896Z,68.48
2017-08-20T08:44:29.877Z,68.38
2017-08-20T08:45:38.852Z,68.48
2017-08-20T08:46:47.828Z,68.09
2017-08-20T08:47:56.810Z,67.9
2017-08-20T08:49:05.786Z,67.8
2017-08-20T08:50:14.763Z,68.09
2017-08-20T08:51:23.743Z,67.51
2017-08-20T08:52:32.714Z,67.42
2017-08-20T08:53:41.687Z,67.42
2017-08-20T08:54:50.667Z,67.51
2017-08-20T08:55:59.642Z,68.09
2017-08-20T08:57:08.613Z,67.61
2017-08-20T08:58:17.586Z,67.8
2017-08-20T08:59:26.562Z,67.42
2017-08-20T09:00:35.526Z,67.93
2017-08-20T09:01:44.527Z,67.83
2017-08-20T09:02:53.481Z,67.55
2017-08-20T09:04:02.540Z,67.26
2017-08-20T09:05:11.630Z,67.07
2017-08-20T09:06:20.580Z,67.16
2017-08-20T09:07:29.527Z,67.26
2017-08-20T09:08:38.475Z,67.16
2017-08-20T09:09:47.424Z,66.97
2017-08-20T09:10:56.374Z,66.01
2017-08-20T09:12:05.322Z,65.81
2017-08-20T09:13:14.281Z,65.14
2017-08-20T09:14:23.578Z,65.17
2017-08-20T09:15:32.862Z,65.27
2017-08-20T09:16:41.905Z,65.33
2017-08-20T09:17:50.886Z,66.04
2017-08-20T09:18:59.875Z,66.2
2017-08-20T09:20:08.959Z,66.24
2017-08-20T09:21:17.909Z,65.46
2017-08-20T09:22:26.858Z,65.17
2017-08-20T09:23:36.138Z,64.69
2017-08-20T09:24:45.161Z,64.79
2017-08-20T09:25:54.370Z,64.79
2017-08-20T09:27:03.324Z,64.69
2017-08-20T09:28:12.392Z,64.56
2017-08-20T09:29:21.356Z,64.86
2017-08-20T09:30:30.380Z,65.56
2017-08-20T09:31:39.405Z,65.17
2017-08-20T09:32:48.402Z,65.85
2017-08-20T09:33:57.359Z,65.85
2017-08-20T09:35:06.314Z,65.05
2017-08-20T09:36:15.264Z,65.81
2017-08-20T09:37:24.225Z,66.14
2017-08-20T09:38:33.494Z,66.2
2017-08-20T09:39:42.454Z,65.33
2017-08-20T09:40:51.406Z,65.14
2017-08-20T09:42:00.359Z,65.53
2017-08-20T09:43:09.327Z,66.01
2017-08-20T09:44:18.602Z,65.63
2017-08-20T09:45:27.745Z,65.33
2017-08-20T09:46:36.749Z,65.53
2017-08-20T09:47:45.762Z,65.33
2017-08-20T09:48:54.789Z,64.37
2017-08-20T09:50:03.790Z,64.18
2017-08-20T09:51:12.782Z,63.79
2017-08-20T09:52:21.733Z,63.06
2017-08-20T09:53:30.684Z,63.12
2017-08-20T09:54:39.639Z,63.22
2017-08-20T09:55:48.602Z,63.34
2017-08-20T09:56:57.572Z,63.15
2017-08-20T09:58:06.522Z,63.06
2017-08-20T09:59:15.477Z,63.06
2017-08-20T10:00:24.434Z,63.25
2017-08-20T10:01:33.745Z,63.06
2017-08-20T10:02:42.699Z,62.67
2017-08-20T10:03:51.649Z,62.48
2017-08-20T10:05:00.600Z,62.38
2017-08-20T10:06:09.614Z,61.74
2017-08-20T10:07:18.574Z,61.16
2017-08-20T10:08:27.524Z,61.07
2017-08-20T10:09:36.795Z,60.39
2017-08-20T10:10:45.753Z,60.1
2017-08-20T10:11:54.719Z,60.39
2017-08-20T10:13:03.697Z,59.43
2017-08-20T10:14:12.653Z,59.52
2017-08-20T10:15:21.605Z,58.85
2017-08-20T10:16:30.564Z,59.14
2017-08-20T10:17:39.842Z,58.65
2017-08-20T10:18:48.805Z,59.52
2017-08-20T10:19:57.772Z,58.69
2017-08-20T10:21:06.736Z,58.69
2017-08-20T10:22:15.689Z,59.07
2017-08-20T10:23:24.661Z,59.07
2017-08-20T10:24:33.626Z,58.69
2017-08-20T10:25:42.590Z,58.59
2017-08-20T10:26:51.553Z,58.97
2017-08-20T10:28:00.517Z,58.4
2017-08-20T10:29:09.481Z,58.4
2017-08-20T10:30:18.443Z,58.88
2017-08-20T10:31:27.419Z,59.55
2017-08-20T10:32:36.396Z,59.36
2017-08-20T10:33:45.351Z,59.55
2017-08-20T10:34:54.313Z,59.75
2017-08-20T10:36:03.274Z,60.23
2017-08-20T10:37:12.238Z,59.84
2017-08-20T10:38:21.224Z,60.2
2017-08-20T10:39:30.180Z,60.39
2017-08-20T10:40:39.206Z,61.16
2017-08-20T10:41:48.166Z,61.45
2017-08-20T10:42:57.452Z,63.85
2017-08-20T10:44:06.424Z,66.14
2017-08-20T10:45:15.494Z,70.56
2017-08-20T10:46:24.460Z,74.41
2017-08-20T10:47:33.748Z,74.67
2017-08-20T10:48:42.712Z,76.98
2017-08-20T10:49:51.682Z,79.15
2017-08-20T10:51:00.666Z,81.07
2017-08-20T10:52:09.627Z,84.73
2017-08-20T10:53:18.904Z,86.61
2017-08-20T10:54:27.870Z,89.59
2017-08-20T10:55:36.837Z,91.13
2017-08-20T10:56:45.800Z,92.33
2017-08-20T10:57:54.769Z,92.81
2017-08-20T10:59:03.834Z,94.06
2017-08-20T11:00:12.796Z,95.31
2017-08-20T11:01:21.749Z,96.08
2017-08-20T11:02:30.705Z,96.89
2017-08-20T11:03:39.823Z,96.99
2017-08-20T11:04:49.106Z,97.28
2017-08-20T11:05:58.067Z,97.96
2017-08-20T11:07:07.052Z,99.3
2017-08-20T11:08:16.021Z,98.91
2017-08-20T11:09:24.981Z,98.53
2017-08-20T11:10:33.937Z,99.78
2017-08-20T11:11:42.907Z,99.99
2017-08-20T11:12:51.857Z,99.99
2017-08-20T11:14:00.818Z,99.99
2017-08-20T11:15:09.868Z,99.35
2017-08-20T11:16:18.833Z,99.83
2017-08-20T11:17:27.785Z,98.19
2017-08-20T11:18:36.737Z,97.67
2017-08-20T11:19:45.699Z,98.1
2017-08-20T11:20:54.978Z,98.63
2017-08-20T11:22:03.943Z,98.91
2017-08-20T11:23:12.898Z,95.45
2017-08-20T11:24:21.859Z,93.91
2017-08-20T11:25:30.817Z,92.57
2017-08-20T11:26:39.785Z,92.29
2017-08-20T11:27:48.752Z,94.98
2017-08-20T11:28:57.711Z,96.13
2017-08-20T11:30:06.670Z,96.13
2017-08-20T11:31:15.640Z,96.32
2017-08-20T11:32:24.927Z,94.01
2017-08-20T11:33:33.888Z,93.24
2017-08-20T11:34:42.857Z,92.19
2017-08-20T11:35:51.814Z,91.9
2017-08-20T11:37:00.773Z,90.12
2017-08-20T11:38:09.738Z,89.69
2017-08-20T11:39:19.031Z,91.13
2017-08-20T11:40:28.304Z,90.12
2017-08-20T11:41:37.261Z,88.63
2017-08-20T11:42:46.219Z,90.26
2017-08-20T11:43:55.270Z,90.79
2017-08-20T11:45:04.249Z,91.85
2017-08-20T11:46:13.211Z,93.58
2017-08-20T11:47:22.169Z,94.54
2017-08-20T11:48:31.130Z,92.18
2017-08-20T11:49:40.084Z,92.38
2017-08-20T11:50:49.037Z,92.47
2017-08-20T11:51:58.006Z,91.13
2017-08-20T11:53:06.958Z,89.49
2017-08-20T11:54:15.923Z,88.53
2017-08-20T11:55:24.885Z,87.27
2017-08-20T11:56:33.843Z,87.27
2017-08-20T11:57:43.126Z,88.62
2017-08-20T11:58:52.079Z,88.62
2017-08-20T12:00:01.041Z,91.22
2017-08-20T12:01:10.009Z,89.68
2017-08-20T12:02:18.973Z,88.91
2017-08-20T12:03:27.923Z,89.1
2017-08-20T12:04:36.918Z,89.2
2017-08-20T12:05:45.873Z,88.09
2017-08-20T12:06:54.830Z,87.12
2017-08-20T12:08:04.119Z,88.76
2017-08-20T12:09:13.077Z,87.9
2017-08-20T12:10:22.037Z,86.83
2017-08-20T12:11:31.005Z,86.16
2017-08-20T12:12:39.960Z,84.62
2017-08-20T12:13:48.926Z,84.23
2017-08-20T12:14:58.234Z,81.63
2017-08-20T12:16:07.196Z,80.87
2017-08-20T12:17:16.150Z,81.06
2017-08-20T12:18:25.113Z,80.87
2017-08-20T12:19:34.085Z,81.01
2017-08-20T12:20:43.053Z,81.48
2017-08-20T12:21:52.340Z,81.39
2017-08-20T12:23:01.301Z,81.2
2017-08-20T12:24:10.258Z,80.43
2017-08-20T12:25:19.223Z,78.4
2017-08-20T12:26:28.181Z,75.61
2017-08-20T12:27:37.134Z,74.36
2017-08-20T12:28:46.100Z,74.45
2017-08-20T12:29:55.062Z,74.84
2017-08-20T12:31:04.050Z,74.55
2017-08-20T12:32:13.014Z,74.16
2017-08-20T12:33:21.976Z,72.91
2017-08-20T12:34:32.642Z,72.24
2017-08-20T12:35:42.010Z,71.56
2017-08-20T12:36:50.979Z,70.5
2017-08-20T12:37:59.954Z,70.89
2017-08-20T12:39:09.707Z,71.66
2017-08-20T12:40:18.669Z,71.76
2017-08-20T12:41:27.787Z,72.33
2017-08-20T12:42:37.110Z,71.47
2017-08-20T12:43:46.071Z,71.47
2017-08-20T12:44:55.054Z,70.79
2017-08-20T12:46:05.509Z,70.89
2017-08-20T12:47:14.884Z,69.96
2017-08-20T12:48:24.848Z,70.92
2017-08-20T12:49:34.431Z,71.89
2017-08-20T12:50:45.267Z,71.79
2017-08-20T12:51:58.171Z,72.18
2017-08-20T12:53:13.724Z,72.56
2017-08-20T12:54:23.099Z,72.18
2017-08-20T12:55:32.583Z,70.35
2017-08-20T12:56:41.859Z,69.96
2017-08-20T12:57:50.969Z,69.77
2017-08-20T12:59:00.688Z,69.48
2017-08-20T13:00:10.100Z,68.99
2017-08-20T13:01:19.143Z,68.71
2017-08-20T13:02:29.110Z,67.55
2017-08-20T13:03:38.319Z,67.16
2017-08-20T13:04:47.305Z,68.52
2017-08-20T13:05:56.338Z,68.65
2017-08-20T13:07:06.479Z,67.58
2017-08-20T13:08:15.748Z,67.88
2017-08-20T13:09:24.711Z,67.3
2017-08-20T13:10:33.696Z,66.62
2017-08-20T13:11:42.652Z,67.3
2017-08-20T13:12:51.616Z,67.78
2017-08-20T13:14:00.582Z,68.45
2017-08-20T13:15:09.861Z,67.3
2017-08-20T13:16:18.819Z,61.99
2017-08-20T13:17:27.790Z,60.83
2017-08-20T13:18:36.745Z,62.48
2017-08-20T13:19:45.709Z,64.69
2017-08-20T13:20:54.664Z,65.27
2017-08-20T13:22:03.618Z,65.37
2017-08-20T13:23:12.576Z,65.37
2017-08-20T13:24:21.533Z,65.85
2017-08-20T13:25:30.495Z,65.17
2017-08-20T13:26:39.457Z,66.14
2017-08-20T13:27:48.736Z,64.02
2017-08-20T13:28:57.783Z,61.22
2017-08-20T13:30:06.750Z,61.8
2017-08-20T13:31:15.714Z,63.73
2017-08-20T13:32:25.003Z,64.79
2017-08-20T13:33:33.968Z,63.54
2017-08-20T13:34:42.963Z,65.08
2017-08-20T13:35:51.926Z,65.27
2017-08-20T13:37:00.888Z,65.27
2017-08-20T13:38:09.953Z,65.56
2017-08-20T13:39:19.015Z,66.24
2017-08-20T13:40:27.978Z,66.72
2017-08-20T13:41:37.106Z,66.66
2017-08-20T13:42:46.088Z,65.69
2017-08-20T13:43:55.076Z,65.98
2017-08-20T13:45:04.355Z,64.82
2017-08-20T13:46:13.362Z,64.92
2017-08-20T13:47:22.331Z,64.79
2017-08-20T13:48:31.670Z,63.95
2017-08-20T13:49:40.721Z,65.66
2017-08-20T13:50:49.677Z,65.95
2017-08-20T13:51:58.677Z,66.14
2017-08-20T13:53:08.423Z,66.24
2017-08-20T13:54:17.396Z,66.04
2017-08-20T13:55:26.356Z,66.72
2017-08-20T13:56:35.316Z,66.62
2017-08-20T13:57:44.282Z,66.62
2017-08-20T13:58:53.550Z,65.69
2017-08-20T14:00:02.674Z,64.63
2017-08-20T14:01:11.764Z,64.53
2017-08-20T14:02:20.889Z,62.99
2017-08-20T14:03:29.855Z,61.06
2017-08-20T14:04:38.886Z,61.25
2017-08-20T14:05:47.859Z,61.54
2017-08-20T14:06:56.869Z,62.22
2017-08-20T14:08:06.182Z,62.7
2017-08-20T14:09:15.574Z,62.12
2017-08-20T14:10:24.737Z,59.03
2017-08-20T14:11:34.055Z,59.61
2017-08-20T14:12:43.169Z,59.23
2017-08-20T14:13:52.149Z,59.23
2017-08-20T14:15:01.359Z,59.03
2017-08-20T14:16:10.362Z,59.03
2017-08-20T14:17:19.330Z,58.36
2017-08-20T14:18:28.383Z,57.29
2017-08-20T14:19:37.419Z,56.24
2017-08-20T14:20:46.688Z,56.24
2017-08-20T14:21:55.670Z,56.04
2017-08-20T14:23:04.633Z,56.43
2017-08-20T14:24:13.591Z,56.43
2017-08-20T14:25:22.555Z,57.01
2017-08-20T14:26:31.983Z,56.24
2017-08-20T14:27:42.137Z,55.46
2017-08-20T14:28:51.124Z,54.79
2017-08-20T14:30:00.087Z,55.18
2017-08-20T14:31:09.069Z,56.14
2017-08-20T14:32:18.099Z,56.91
2017-08-20T14:33:27.390Z,57.1
2017-08-20T14:34:36.423Z,56.72
2017-08-20T14:35:45.379Z,56.69
2017-08-20T14:36:54.351Z,57.07
2017-08-20T14:38:03.311Z,57.65
2017-08-20T14:39:12.278Z,57.56
2017-08-20T14:40:21.238Z,57.85
2017-08-20T14:41:30.205Z,57.94
2017-08-20T14:42:39.179Z,58.14
2017-08-20T14:43:48.145Z,58.11
2017-08-20T14:44:57.435Z,58.4
2017-08-20T14:46:06.394Z,58.88
2017-08-20T14:47:15.358Z,58.97
2017-08-20T14:48:24.331Z,59.07
2017-08-20T14:49:33.298Z,59.75
2017-08-20T14:50:42.264Z,59.45
2017-08-20T14:51:51.226Z,59.75